createdAt,value
2022-09-02T00:02:09.387Z,1.02
2022-09-02T00:05:11.164Z,1.00
2022-09-02T00:08:13.389Z,0.80
2022-09-02T00:11:19.002Z,0.90
2022-09-02T00:14:25.213Z,1.02
2022-09-02T00:17:27.001Z,0.80
2022-09-02T00:20:30.100Z,0.95
2022-09-02T00:23:32.132Z,0.90
2022-09-02T00:26:33.916Z,1.00
2022-09-02T00:29:35.562Z,0.90
2022-09-02T00:32:38.640Z,1.00
2022-09-02T00:35:40.382Z,1.08
2022-09-02T00:38:42.104Z,0.90
2022-09-02T00:41:44.745Z,0.90
2022-09-02T00:44:46.637Z,0.93
2022-09-02T00:47:51.921Z,1.00
2022-09-02T00:50:53.734Z,1.00
2022-09-02T00:53:56.081Z,0.85
2022-09-02T00:57:00.320Z,1.00
2022-09-02T01:00:17.398Z,1.00
2022-09-02T01:03:21.956Z,1.00
2022-09-02T01:06:27.198Z,0.93
2022-09-02T01:09:29.137Z,1.23
2022-09-02T01:12:31.660Z,1.10
2022-09-02T01:15:37.374Z,1.10
2022-09-02T01:18:47.554Z,1.00
2022-09-02T01:21:51.959Z,1.10
2022-09-02T01:24:56.319Z,1.00
2022-09-02T01:28:04.354Z,1.80
2022-09-02T01:31:07.633Z,0.90
2022-09-02T01:34:11.335Z,1.00
2022-09-02T01:37:14.013Z,1.00
2022-09-02T01:40:18.308Z,1.00
2022-09-02T01:43:24.019Z,1.00
2022-09-02T01:46:25.752Z,1.10
2022-09-02T01:49:27.686Z,1.00
2022-09-02T01:52:30.043Z,0.90
2022-09-02T01:55:33.534Z,1.10
2022-09-02T01:58:36.524Z,0.98
2022-09-02T02:01:38.429Z,0.90
2022-09-02T02:04:40.392Z,1.10
2022-09-02T02:07:45.935Z,1.10
2022-09-02T02:10:48.082Z,1.00
2022-09-02T02:13:50.168Z,1.10
2022-09-02T02:16:51.928Z,1.00
2022-09-02T02:19:53.592Z,1.00
2022-09-02T02:22:55.580Z,0.90
2022-09-02T02:25:57.355Z,1.10
2022-09-02T02:28:59.113Z,1.20
2022-09-02T02:32:02.499Z,1.02
2022-09-02T02:35:05.757Z,1.00
2022-09-02T02:38:10.292Z,1.00
2022-09-02T02:41:16.215Z,1.10
2022-09-02T02:44:18.779Z,1.17
2022-09-02T02:47:21.101Z,1.10
2022-09-02T02:50:23.844Z,1.00
2022-09-02T02:53:25.953Z,1.13
2022-09-02T02:56:30.904Z,1.30
2022-09-02T02:59:32.894Z,1.10
2022-09-02T03:02:35.143Z,1.10
2022-09-02T03:05:39.389Z,1.25
2022-09-02T03:08:41.958Z,1.10
2022-09-02T03:11:43.677Z,1.10
2022-09-02T03:14:46.419Z,1.20
2022-09-02T03:17:49.666Z,1.20
2022-09-02T03:20:51.999Z,1.20
2022-09-02T03:23:54.184Z,1.05
2022-09-02T03:26:55.960Z,1.13
2022-09-02T03:29:57.798Z,1.20
2022-09-02T03:33:04.123Z,1.30
2022-09-02T03:36:07.739Z,1.25
2022-09-02T03:39:12.105Z,1.20
2022-09-02T03:42:19.455Z,1.20
2022-09-02T03:45:24.520Z,1.10
2022-09-02T03:48:26.312Z,1.30
2022-09-02T03:51:28.444Z,1.10
2022-09-02T03:54:30.760Z,1.20
2022-09-02T03:57:32.801Z,1.45
2022-09-02T04:00:36.281Z,1.30
2022-09-02T04:03:39.299Z,1.30
2022-09-02T04:06:41.123Z,1.70
2022-09-02T04:09:46.586Z,1.42
2022-09-02T04:12:50.524Z,1.33
2022-09-02T04:15:52.718Z,1.40
2022-09-02T04:19:02.011Z,1.60
2022-09-02T04:22:04.360Z,1.30
2022-09-02T04:25:08.785Z,1.40
2022-09-02T04:28:13.148Z,1.40
2022-09-02T04:31:18.676Z,1.42
2022-09-02T04:34:21.034Z,1.40
2022-09-02T04:37:26.431Z,1.40
2022-09-02T04:40:30.132Z,1.33
2022-09-02T04:43:38.334Z,1.70
2022-09-02T04:46:42.229Z,1.45
2022-09-02T04:49:50.931Z,1.60
2022-09-02T04:52:57.330Z,1.60
2022-09-02T05:01:23.059Z,1.48
2022-09-02T05:08:56.033Z,1.60
2022-09-02T05:12:19.028Z,1.50
2022-09-02T05:15:31.112Z,1.55
2022-09-02T05:18:36.192Z,1.52
2022-09-02T05:21:42.748Z,1.50
2022-09-02T05:24:50.394Z,1.50
2022-09-02T05:27:52.208Z,1.40
2022-09-02T05:30:54.865Z,1.30
2022-09-02T05:33:57.205Z,1.60
2022-09-02T05:36:58.976Z,1.58
2022-09-02T05:40:05.658Z,1.90
2022-09-02T05:43:09.390Z,1.50
2022-09-02T05:46:17.653Z,1.45
2022-09-02T05:49:22.094Z,1.73
2022-09-02T05:52:29.332Z,1.70
2022-09-02T05:55:31.302Z,1.70
2022-09-02T06:08:26.667Z,1.70
2022-09-02T06:11:53.748Z,1.85
2022-09-02T06:14:56.057Z,1.70
2022-09-02T06:17:59.907Z,1.80
2022-09-02T06:21:04.590Z,1.75
2022-09-02T06:24:13.712Z,2.17
2022-09-02T06:27:18.468Z,1.80
2022-09-02T06:30:23.279Z,2.30
2022-09-02T06:33:25.171Z,2.08
2022-09-02T06:36:30.114Z,1.80
2022-09-02T06:39:35.955Z,1.60
2022-09-02T06:42:39.153Z,1.88
2022-09-02T06:45:51.405Z,1.98
2022-09-02T06:48:53.223Z,1.60
2022-09-02T06:51:57.588Z,1.50
2022-09-02T06:55:09.951Z,2.03
2022-09-02T06:58:43.135Z,1.55
2022-09-02T07:01:46.416Z,1.75
2022-09-02T07:05:09.781Z,2.23
2022-09-02T07:08:12.141Z,1.80
2022-09-02T07:11:23.602Z,1.45
2022-09-02T07:14:28.777Z,1.60
2022-09-02T07:17:30.734Z,1.70
2022-09-02T07:20:38.794Z,2.00
2022-09-02T07:23:41.243Z,1.73
2022-09-02T07:26:45.638Z,1.70
2022-09-02T07:29:49.867Z,1.77
2022-09-02T07:32:52.920Z,1.90
2022-09-02T07:35:57.020Z,1.70
2022-09-02T07:39:02.256Z,2.00
2022-09-02T07:42:07.520Z,1.60
2022-09-02T07:45:13.101Z,1.52
2022-09-02T07:48:17.405Z,1.65
2022-09-02T07:51:20.363Z,1.67
2022-09-02T07:54:25.364Z,1.50
2022-09-02T07:57:31.995Z,1.70
2022-09-02T08:00:34.467Z,1.58
2022-09-02T08:03:45.030Z,1.42
2022-09-02T08:06:47.279Z,1.60
2022-09-02T08:09:49.197Z,1.90
2022-09-02T08:12:53.728Z,1.60
2022-09-02T08:15:57.802Z,1.60
2022-09-02T08:18:59.593Z,1.50
2022-09-02T08:22:06.533Z,1.60
2022-09-02T08:25:10.934Z,1.90
2022-09-02T08:28:14.654Z,1.70
2022-09-02T08:31:21.833Z,1.55
2022-09-02T08:34:23.935Z,1.65
2022-09-02T08:37:27.842Z,1.50
2022-09-02T08:40:45.042Z,1.80
2022-09-02T08:43:53.405Z,1.75
2022-09-02T08:47:01.312Z,1.90
2022-09-02T08:50:14.032Z,1.70
2022-09-02T08:53:28.064Z,1.60
2022-09-02T08:56:31.494Z,1.40
2022-09-02T08:59:33.497Z,1.45
2022-09-02T09:02:46.717Z,1.70
2022-09-02T09:06:14.506Z,1.30
2022-09-02T09:09:38.252Z,1.40
2022-09-02T09:12:42.216Z,1.60
2022-09-02T09:16:17.327Z,1.30
2022-09-02T09:19:34.342Z,1.42
2022-09-02T09:25:44.246Z,1.33
2022-09-02T09:28:49.102Z,1.20
2022-09-02T09:31:57.686Z,1.25
2022-09-02T09:35:26.630Z,1.23
2022-09-02T09:38:36.761Z,1.33
2022-09-02T09:42:00.278Z,1.17
2022-09-02T09:45:26.141Z,1.30
2022-09-02T09:48:42.097Z,1.20
2022-09-02T09:52:04.317Z,1.13
2022-09-02T09:55:25.307Z,1.30
2022-09-02T09:58:32.918Z,1.20
2022-09-02T10:01:35.734Z,1.35
2022-09-02T10:04:43.428Z,1.20
2022-09-02T10:07:54.242Z,1.10
2022-09-02T10:11:06.323Z,1.10
2022-09-02T10:14:11.927Z,1.17
2022-09-02T10:17:22.837Z,1.15
2022-09-02T10:21:15.033Z,1.20
2022-09-02T10:24:36.185Z,1.08
2022-09-02T10:28:04.133Z,1.15
2022-09-02T10:31:31.172Z,1.10
2022-09-02T10:37:53.447Z,1.00
2022-09-02T10:41:21.477Z,0.98
2022-09-02T10:44:45.447Z,1.00
2022-09-02T10:48:23.781Z,1.10
2022-09-02T10:51:47.350Z,1.45
2022-09-02T10:55:16.538Z,1.20
2022-09-02T10:58:26.308Z,1.00
2022-09-02T11:01:35.650Z,1.10
2022-09-02T11:05:21.160Z,1.10
2022-09-02T11:08:38.457Z,1.00
2022-09-02T11:11:48.857Z,1.20
2022-09-02T11:15:03.384Z,1.02
2022-09-02T11:21:37.065Z,1.00
2022-09-02T11:24:55.791Z,1.52
2022-09-02T11:28:25.890Z,1.20
2022-09-02T11:31:53.180Z,1.20
2022-09-02T11:34:58.422Z,1.20
2022-09-02T11:38:15.699Z,1.10
2022-09-02T11:41:43.757Z,1.05
2022-09-02T11:44:56.817Z,1.10
2022-09-02T11:48:22.883Z,1.10
2022-09-02T11:52:01.863Z,1.02
2022-09-02T11:55:14.275Z,1.10
2022-09-02T11:58:32.151Z,1.00
2022-09-02T12:02:00.403Z,1.20
2022-09-02T12:05:32.009Z,1.10
2022-09-02T12:08:36.978Z,1.20
2022-09-02T12:11:41.699Z,1.10
2022-09-02T12:14:47.165Z,1.00
2022-09-02T12:17:51.872Z,0.90
2022-09-02T12:21:06.094Z,1.17
2022-09-02T12:24:19.136Z,1.00
2022-09-02T12:27:26.870Z,1.15
2022-09-02T12:30:58.194Z,1.10
2022-09-02T12:34:02.737Z,1.10
2022-09-02T12:37:04.496Z,1.17
2022-09-02T12:40:14.609Z,1.25
2022-09-02T12:43:27.126Z,1.20
2022-09-02T12:46:45.217Z,1.20
2022-09-02T12:50:06.597Z,1.15
2022-09-02T12:53:32.425Z,1.10
2022-09-02T12:56:34.183Z,1.10
2022-09-02T12:59:38.518Z,1.10
2022-09-02T13:03:01.813Z,1.30
2022-09-02T13:06:18.438Z,1.20
2022-09-02T13:12:38.076Z,1.33
2022-09-02T13:16:15.496Z,1.08
2022-09-02T13:19:36.391Z,1.33
2022-09-02T13:23:09.494Z,1.10
2022-09-02T13:26:48.368Z,1.10
2022-09-02T13:30:03.111Z,1.27
2022-09-02T13:33:10.671Z,1.40
2022-09-02T13:36:24.487Z,1.23
2022-09-02T13:39:30.688Z,1.20
2022-09-02T13:42:33.161Z,1.20
2022-09-02T13:45:36.022Z,1.23
2022-09-02T13:48:40.265Z,1.00
2022-09-02T13:51:42.469Z,1.20
2022-09-02T13:54:52.763Z,1.10
2022-09-02T13:57:59.001Z,1.10
2022-09-02T14:01:24.013Z,1.30
2022-09-02T14:04:27.124Z,1.13
2022-09-02T14:07:44.088Z,1.10
2022-09-02T14:10:48.314Z,1.10
2022-09-02T14:13:51.084Z,1.15
2022-09-02T14:16:52.909Z,1.40
2022-09-02T14:20:14.857Z,1.10
2022-09-02T14:23:17.090Z,1.17
2022-09-02T14:26:46.849Z,1.10
2022-09-02T14:30:00.901Z,1.10
2022-09-02T14:33:25.898Z,1.20
2022-09-02T14:36:36.653Z,1.30
2022-09-02T14:40:00.286Z,0.90
2022-09-02T14:43:05.251Z,1.15
2022-09-02T14:46:07.640Z,1.00
2022-09-02T14:49:17.613Z,1.00
2022-09-02T14:52:25.497Z,1.10
2022-09-02T14:55:45.424Z,1.02
2022-09-02T14:58:49.004Z,1.23
2022-09-02T15:01:53.341Z,1.10
2022-09-02T15:04:56.119Z,1.00
2022-09-02T15:07:57.876Z,1.10
2022-09-02T15:11:01.123Z,1.10
2022-09-02T15:14:02.808Z,0.95
2022-09-02T15:17:08.738Z,1.20
2022-09-02T15:20:11.286Z,1.30
2022-09-02T15:23:12.923Z,0.90
2022-09-02T15:26:15.524Z,1.02
2022-09-02T15:29:18.786Z,1.00
2022-09-02T15:32:20.488Z,1.30
2022-09-02T15:35:22.168Z,1.10
2022-09-02T15:38:23.867Z,1.20
2022-09-02T15:41:27.539Z,0.90
2022-09-02T15:44:31.218Z,0.98
2022-09-02T15:47:35.168Z,1.05
2022-09-02T15:50:36.922Z,1.00
2022-09-02T15:53:39.002Z,1.08
2022-09-02T15:56:43.253Z,0.93
2022-09-02T15:59:44.881Z,1.10
2022-09-02T16:02:47.507Z,1.00
2022-09-02T16:05:49.158Z,1.00
2022-09-02T16:08:53.850Z,1.10
2022-09-02T16:11:58.338Z,0.95
2022-09-02T16:15:00.008Z,1.10
2022-09-02T16:18:02.658Z,1.10
2022-09-02T16:21:05.529Z,0.82
2022-09-02T16:24:08.728Z,1.00
2022-09-02T16:27:10.416Z,1.00
2022-09-02T16:30:12.252Z,0.93
2022-09-02T16:33:16.563Z,0.88
2022-09-02T16:36:19.058Z,1.10
2022-09-02T16:39:21.121Z,0.98
2022-09-02T16:42:24.699Z,1.00
2022-09-02T16:45:26.645Z,1.20
2022-09-02T16:48:31.028Z,0.95
2022-09-02T16:51:33.455Z,1.10
2022-09-02T16:54:37.472Z,0.95
2022-09-02T16:57:42.373Z,1.10
2022-09-02T17:00:47.044Z,1.00
2022-09-02T17:03:49.033Z,0.90
2022-09-02T17:06:50.728Z,0.88
2022-09-02T17:09:52.386Z,0.90
2022-09-02T17:12:55.739Z,1.00
2022-09-02T17:15:57.428Z,0.90
2022-09-02T17:18:59.528Z,0.80
2022-09-02T17:22:01.348Z,0.90
2022-09-02T17:25:03.022Z,0.80
2022-09-02T17:28:04.674Z,0.90
2022-09-02T17:31:17.773Z,0.80
2022-09-02T17:34:19.456Z,0.90
2022-09-02T17:37:22.036Z,0.80
2022-09-02T17:40:42.160Z,0.90
2022-09-02T17:43:43.974Z,0.98
2022-09-02T17:46:45.890Z,0.82
2022-09-02T17:49:51.302Z,0.90
2022-09-02T17:52:52.910Z,0.88
2022-09-02T17:56:14.661Z,0.80
2022-09-02T17:59:35.311Z,0.80
2022-09-02T18:02:40.441Z,0.90
2022-09-02T18:05:58.197Z,0.80
2022-09-02T18:09:04.338Z,0.95
2022-09-02T18:12:08.194Z,0.77
2022-09-02T18:15:16.024Z,0.90
2022-09-02T18:18:19.276Z,0.90
2022-09-02T18:21:46.655Z,0.85
2022-09-02T18:28:32.983Z,0.80
2022-09-02T18:32:03.609Z,0.90
2022-09-02T18:35:21.772Z,0.90
2022-09-02T18:38:54.703Z,1.20
2022-09-02T18:42:32.261Z,1.50
2022-09-02T18:45:44.806Z,2.00
2022-09-02T18:48:51.757Z,1.95
2022-09-02T18:52:05.287Z,1.90
2022-09-02T18:55:17.237Z,1.67
2022-09-02T18:58:34.879Z,1.92
2022-09-02T19:01:56.458Z,1.60
2022-09-02T19:05:01.821Z,1.55
2022-09-02T19:08:35.126Z,1.70
2022-09-02T19:11:38.900Z,1.70
2022-09-02T19:14:41.096Z,1.65
2022-09-02T19:17:42.957Z,1.40
2022-09-02T19:20:44.725Z,1.10
2022-09-02T19:23:48.491Z,1.17
2022-09-02T19:26:57.284Z,0.88
2022-09-02T19:30:20.336Z,0.90
2022-09-02T19:33:22.397Z,0.82
2022-09-02T19:36:31.153Z,0.90
2022-09-02T19:39:36.564Z,0.90
2022-09-02T19:42:38.348Z,0.82
2022-09-02T19:45:40.399Z,0.80
2022-09-02T19:48:42.157Z,0.70
2022-09-02T19:51:44.136Z,0.88
2022-09-02T19:54:46.368Z,1.00
2022-09-02T19:57:48.122Z,0.80
2022-09-02T20:00:49.832Z,0.90
2022-09-02T20:03:51.564Z,0.90
2022-09-02T20:06:53.507Z,0.80
2022-09-02T20:09:55.316Z,0.98
2022-09-02T20:12:58.704Z,0.93
2022-09-02T20:16:01.394Z,0.80
2022-09-02T20:19:03.739Z,0.90
2022-09-02T20:22:05.459Z,0.90
2022-09-02T20:25:07.867Z,0.88
2022-09-02T20:28:23.885Z,0.90
2022-09-02T20:31:50.155Z,0.90
2022-09-02T20:35:36.663Z,0.90
2022-09-02T20:39:03.719Z,0.82
2022-09-02T20:42:26.425Z,0.70
2022-09-02T20:45:39.035Z,0.90
2022-09-02T20:48:59.503Z,0.90
2022-09-02T20:52:04.534Z,0.82
2022-09-02T20:55:21.835Z,1.00
2022-09-02T20:58:58.977Z,1.02
2022-09-02T21:02:02.038Z,0.80
2022-09-02T21:05:12.100Z,0.90
2022-09-02T21:08:24.443Z,0.93
2022-09-02T21:11:36.920Z,1.00
2022-09-02T21:14:45.594Z,1.00
2022-09-02T21:18:14.204Z,0.90
2022-09-02T21:22:03.383Z,1.17
2022-09-02T21:25:20.064Z,1.10
2022-09-02T21:28:43.934Z,0.88
2022-09-02T21:32:15.491Z,0.90
2022-09-02T21:35:23.237Z,1.10
2022-09-02T21:38:56.470Z,1.10
2022-09-02T21:42:28.573Z,1.02
2022-09-02T21:45:53.604Z,1.20
2022-09-02T21:49:13.304Z,0.95
2022-09-02T21:52:57.011Z,1.00
2022-09-02T21:56:24.064Z,1.00
2022-09-02T21:59:34.669Z,0.98
2022-09-02T22:03:08.665Z,0.80
2022-09-02T22:06:22.332Z,1.00
2022-09-02T22:09:32.921Z,1.13
2022-09-02T22:12:40.015Z,0.93
2022-09-02T22:15:58.313Z,1.00
2022-09-02T22:19:05.259Z,1.00
2022-09-02T22:22:13.460Z,0.90
2022-09-02T22:25:16.508Z,0.90
2022-09-02T22:28:37.342Z,1.00
2022-09-02T22:31:42.706Z,0.88
2022-09-02T22:35:10.620Z,0.90
2022-09-02T22:38:26.693Z,1.00
2022-09-02T22:41:31.270Z,1.00
2022-09-02T22:44:58.767Z,0.90
2022-09-02T22:48:24.657Z,0.95
2022-09-02T22:51:50.052Z,1.00
2022-09-02T22:54:52.337Z,0.90
2022-09-02T22:58:48.254Z,0.90
2022-09-02T23:02:05.878Z,0.90
2022-09-02T23:05:30.555Z,0.90
2022-09-02T23:08:35.580Z,1.00
2022-09-02T23:11:52.544Z,1.00
2022-09-02T23:15:22.738Z,1.00
2022-09-02T23:18:53.258Z,0.95
2022-09-02T23:22:00.652Z,1.00
2022-09-02T23:25:56.041Z,1.00
2022-09-02T23:29:19.877Z,0.90
2022-09-02T23:33:02.669Z,0.90
2022-09-02T23:36:25.120Z,0.90
2022-09-02T23:39:29.829Z,0.90
2022-09-02T23:42:31.546Z,0.90
2022-09-02T23:45:34.769Z,0.90
2022-09-02T23:49:04.657Z,1.00
2022-09-02T23:52:16.793Z,1.00
2022-09-02T23:55:44.333Z,1.08
2022-09-02T23:59:25.130Z,1.10
